Time;durP1;ratioP1;P1;durP2;ratioP2;P2;SDS_P1;SDS_P2;PMS_P1;PMS_P2;Temp;Humidity;BMP_temperature;BMP_pressure;BME280_temperature;BME280_humidity;BME280_pressure;Samples;Min_cycle;Max_cycle;Signal;HPM_P1;HPM_P2
2021/12/17 00:00:58;;;;;;;34.22;22.88;;;;;;;;;;10271420;28;20049;-55
2021/12/17 00:06:15;;;;;;;30.50;21.25;;;;;;;;;;10271065;28;20075;-54
2021/12/17 00:11:14;;;;;;;33.03;21.00;;;;;;;;;;10253336;28;20089;-54
2021/12/17 00:16:17;;;;;;;30.20;21.55;;;;;;;;;;10252744;28;20068;-53
2021/12/17 00:52:52;;;;;;;;;;;;;;;;;;10272432;28;20041;-54
2021/12/17 00:57:52;;;;;;;31.67;21.45;;;;;;;;;;10277853;28;19967;-53
2021/12/17 01:02:52;;;;;;;31.45;21.48;;;;;;;;;;10277310;28;20072;-52
2021/12/17 01:07:52;;;;;;;32.13;21.88;;;;;;;;;;10276542;28;20228;-54
2021/12/17 01:12:53;;;;;;;37.83;23.23;;;;;;;;;;10276129;28;20053;-54
2021/12/17 01:18:13;;;;;;;33.45;22.65;;;;;;;;;;10273021;28;20049;-54
2021/12/17 01:24:04;;;;;;;34.10;23.17;;;;;;;;;;10240809;28;20080;-54
2021/12/17 01:45:17;;;;;;;34.95;22.17;;;;;;;;;;10271828;28;20107;-54
2021/12/17 01:55:49;;;;;;;48.33;28.45;;;;;;;;;;10260157;28;20160;-53
2021/12/17 02:00:49;;;;;;;39.63;26.10;;;;;;;;;;10252621;28;20049;-53
2021/12/17 02:05:48;;;;;;;39.33;26.50;;;;;;;;;;10234637;28;20049;-53
2021/12/17 02:21:54;;;;;;;34.05;23.05;;;;;;;;;;10274211;28;20041;-52
2021/12/17 02:32:10;;;;;;;46.00;28.63;;;;;;;;;;10274648;28;20044;-53
2021/12/17 02:37:13;;;;;;;37.25;26.65;;;;;;;;;;10273492;28;20472;-54
2021/12/17 02:45:31;;;;;;;50.10;31.88;;;;;;;;;;10242490;28;20519;-51
2021/12/17 02:47:58;;;;;;;46.25;29.73;;;;;;;;;;10269496;28;20080;-54
2021/12/17 02:53:00;;;;;;;42.83;27.80;;;;;;;;;;10272012;28;20064;-51
2021/12/17 02:57:59;;;;;;;40.28;26.77;;;;;;;;;;10273388;28;20076;-54
2021/12/17 03:02:57;;;;;;;36.63;26.02;;;;;;;;;;10273624;28;20501;-48
2021/12/17 03:07:56;;;;;;;39.55;25.90;;;;;;;;;;10272712;28;20049;-55
2021/12/17 03:12:59;;;;;;;35.00;24.67;;;;;;;;;;10272533;28;20072;-52
2021/12/17 03:23:31;;;;;;;34.40;24.83;;;;;;;;;;10272736;28;20067;-55
2021/12/17 03:28:33;;;;;;;40.30;25.90;;;;;;;;;;10268196;28;20053;-54
2021/12/17 03:33:32;;;;;;;42.15;28.17;;;;;;;;;;10237386;28;20069;-50
2021/12/17 03:38:30;;;;;;;36.55;23.55;;;;;;;;;;10251808;28;20076;-49
2021/12/17 03:43:30;;;;;;;35.88;23.17;;;;;;;;;;10231605;28;20041;-50
2021/12/17 03:48:35;;;;;;;39.30;25.95;;;;;;;;;;10254369;28;20061;-53
2021/12/17 03:53:34;;;;;;;32.27;23.40;;;;;;;;;;10263256;28;20044;-53
2021/12/17 03:58:34;;;;;;;36.55;24.55;;;;;;;;;;10270068;28;20081;-55
2021/12/17 04:03:34;;;;;;;43.67;26.48;;;;;;;;;;10261803;28;20049;-54
2021/12/17 04:08:39;;;;;;;41.58;27.58;;;;;;;;;;10240744;28;20045;-54
2021/12/17 04:13:57;;;;;;;39.45;27.38;;;;;;;;;;10260396;28;20506;-53
2021/12/17 04:18:59;;;;;;;42.47;28.58;;;;;;;;;;10240107;28;20050;-53
2021/12/17 04:24:01;;;;;;;39.63;27.02;;;;;;;;;;10240973;28;20526;-53
2021/12/17 04:29:02;;;;;;;45.50;29.95;;;;;;;;;;10232927;28;20053;-53
2021/12/17 04:34:03;;;;;;;39.05;25.90;;;;;;;;;;10259940;28;20076;-54
2021/12/17 04:39:04;;;;;;;42.40;26.67;;;;;;;;;;10269800;28;20091;-53
2021/12/17 04:44:08;;;;;;;38.72;26.27;;;;;;;;;;10269317;28;20049;-52
2021/12/17 04:59:43;;;;;;;50.28;31.10;;;;;;;;;;10243034;28;20076;-54
2021/12/17 05:04:44;;;;;;;60.15;39.10;;;;;;;;;;10263904;28;20506;-53
2021/12/17 05:09:51;;;;;;;42.97;27.77;;;;;;;;;;10244436;28;20054;-56
2021/12/17 05:20:23;;;;;;;39.58;23.63;;;;;;;;;;10269037;28;20056;-55
2021/12/17 05:25:22;;;;;;;31.75;21.42;;;;;;;;;;10269070;28;20064;-53
2021/12/17 05:30:20;;;;;;;112.00;56.65;;;;;;;;;;10254349;28;20072;-53
2021/12/17 05:35:20;;;;;;;48.17;30.25;;;;;;;;;;10252314;28;20099;-52
2021/12/17 05:40:20;;;;;;;34.17;22.65;;;;;;;;;;10237421;28;20065;-52
2021/12/17 05:45:32;;;;;;;33.78;23.70;;;;;;;;;;10270900;28;20498;-54
2021/12/17 05:50:33;;;;;;;31.98;22.02;;;;;;;;;;10249166;28;20423;-49
2021/12/17 05:55:31;;;;;;;31.08;23.90;;;;;;;;;;10249095;28;20053;-54
2021/12/17 06:00:30;;;;;;;32.58;21.95;;;;;;;;;;10250068;28;20462;-53
2021/12/17 06:05:42;;;;;;;47.80;33.22;;;;;;;;;;10250179;28;20279;-53
2021/12/17 06:10:41;;;;;;;50.30;38.05;;;;;;;;;;10243355;28;20080;-56
2021/12/17 06:15:41;;;;;;;28.88;22.15;;;;;;;;;;10243986;28;20042;-52
2021/12/17 06:20:39;;;;;;;35.90;25.42;;;;;;;;;;10245682;28;20621;-51
2021/12/17 06:25:39;;;;;;;52.00;36.50;;;;;;;;;;10244209;28;20072;-55
2021/12/17 06:30:37;;;;;;;42.75;33.28;;;;;;;;;;10245566;28;20068;-55
2021/12/17 06:35:40;;;;;;;35.03;25.75;;;;;;;;;;10247885;28;20077;-52
2021/12/17 06:40:40;;;;;;;38.53;25.42;;;;;;;;;;10252247;28;20049;-52
2021/12/17 06:45:49;;;;;;;40.78;28.88;;;;;;;;;;10240537;28;20482;-53
2021/12/17 07:08:17;;;;;;;36.85;26.70;;;;;;;;;;10264083;28;20410;-53
2021/12/17 07:35:23;;;;;;;31.17;21.02;;;;;;;;;;10254840;28;20084;-52
2021/12/17 07:40:22;;;;;;;31.67;19.88;;;;;;;;;;10264077;28;20048;-55
2021/12/17 07:45:22;;;;;;;32.53;22.73;;;;;;;;;;10269968;28;20049;-51
2021/12/17 07:50:35;;;;;;;30.33;21.17;;;;;;;;;;10254945;28;20057;-56
2021/12/17 07:55:45;;;;;;;73.75;45.40;;;;;;;;;;10244122;28;20092;-52
2021/12/17 08:00:51;;;;;;;32.90;24.53;;;;;;;;;;10244333;28;20054;-55
2021/12/17 08:05:50;;;;;;;33.78;25.95;;;;;;;;;;10244480;28;20049;-55
2021/12/17 08:10:49;;;;;;;31.27;21.40;;;;;;;;;;10230894;28;20064;-57
2021/12/17 08:16:02;;;;;;;26.88;20.90;;;;;;;;;;10230649;28;20053;-56
2021/12/17 08:26:38;;;;;;;29.30;23.08;;;;;;;;;;10242083;28;20052;-55
2021/12/17 08:31:39;;;;;;;46.33;28.02;;;;;;;;;;10269817;28;20041;-54
2021/12/17 08:36:42;;;;;;;35.78;27.58;;;;;;;;;;10268584;28;20064;-50
2021/12/17 08:41:41;;;;;;;55.78;32.85;;;;;;;;;;10262258;28;20429;-54
2021/12/17 08:46:41;;;;;;;51.80;32.58;;;;;;;;;;10243226;28;20041;-54
2021/12/17 08:51:54;;;;;;;33.42;22.88;;;;;;;;;;10244293;28;20587;-51
2021/12/17 08:56:53;;;;;;;21.75;19.33;;;;;;;;;;10266503;28;20067;-53
2021/12/17 09:01:56;;;;;;;36.78;29.83;;;;;;;;;;10236826;28;20058;-54
2021/12/17 09:06:57;;;;;;;48.47;28.77;;;;;;;;;;10236567;28;20050;-54
2021/12/17 09:11:55;;;;;;;59.00;37.20;;;;;;;;;;10237663;28;20076;-55
2021/12/17 09:16:59;;;;;;;32.83;25.40;;;;;;;;;;10236002;28;20081;-56
2021/12/17 09:22:03;;;;;;;58.03;42.85;;;;;;;;;;10235491;28;20077;-53
2021/12/17 09:27:09;;;;;;;40.40;29.90;;;;;;;;;;10249430;28;20049;-54
2021/12/17 09:32:26;;;;;;;28.33;23.42;;;;;;;;;;10245583;28;20077;-52
2021/12/17 09:37:26;;;;;;;31.27;22.45;;;;;;;;;;10237650;28;20080;-56
2021/12/17 09:42:24;;;;;;;46.20;34.47;;;;;;;;;;10237467;28;20107;-54
2021/12/17 09:47:22;;;;;;;36.03;26.40;;;;;;;;;;10237140;28;20077;-56
2021/12/17 09:52:21;;;;;;;41.33;31.42;;;;;;;;;;10237396;28;20069;-54
2021/12/17 09:57:20;;;;;;;27.95;22.13;;;;;;;;;;10247902;28;20077;-54
2021/12/17 10:02:19;;;;;;;38.47;31.13;;;;;;;;;;10244169;28;20117;-55
2021/12/17 10:07:18;;;;;;;37.95;31.25;;;;;;;;;;10261181;28;20053;-55
2021/12/17 10:12:22;;;;;;;38.08;31.55;;;;;;;;;;10244725;28;20152;-55
2021/12/17 10:17:21;;;;;;;47.28;36.97;;;;;;;;;;10236003;28;20443;-54
2021/12/17 10:22:21;;;;;;;29.40;23.45;;;;;;;;;;10235945;28;20569;-56
2021/12/17 10:27:20;;;;;;;45.47;36.08;;;;;;;;;;10235657;28;20045;-55
2021/12/17 10:32:19;;;;;;;110.60;67.03;;;;;;;;;;10235592;28;20518;-58
2021/12/17 10:37:31;;;;;;;32.40;23.17;;;;;;;;;;10233779;28;20053;-56
2021/12/17 10:42:36;;;;;;;26.45;19.40;;;;;;;;;;10237121;28;20037;-55
2021/12/17 10:47:36;;;;;;;27.10;22.35;;;;;;;;;;10245733;28;20062;-55
2021/12/17 10:52:41;;;;;;;23.98;18.52;;;;;;;;;;10244576;28;20455;-56
2021/12/17 10:57:39;;;;;;;80.03;39.87;;;;;;;;;;10243661;28;20080;-55
2021/12/17 11:02:38;;;;;;;108.72;66.03;;;;;;;;;;10242717;28;20093;-52
2021/12/17 11:07:39;;;;;;;302.20;148.88;;;;;;;;;;10253154;28;20093;-54
2021/12/17 11:12:38;;;;;;;136.57;76.07;;;;;;;;;;10272172;28;20520;-55
2021/12/17 11:17:37;;;;;;;79.47;47.75;;;;;;;;;;10245519;28;20077;-54
2021/12/17 11:22:36;;;;;;;68.93;47.70;;;;;;;;;;10234061;28;20414;-52
2021/12/17 11:27:36;;;;;;;46.30;35.00;;;;;;;;;;10233530;28;20498;-53
2021/12/17 11:32:35;;;;;;;43.33;31.77;;;;;;;;;;10233600;28;20471;-49
2021/12/17 11:37:34;;;;;;;29.83;23.63;;;;;;;;;;10236268;28;20079;-48
2021/12/17 11:42:53;;;;;;;32.78;26.67;;;;;;;;;;10240794;28;20083;-51
2021/12/17 11:47:54;;;;;;;23.83;20.00;;;;;;;;;;10266219;28;20122;-52
2021/12/17 11:52:53;;;;;;;21.63;17.70;;;;;;;;;;10270979;28;20080;-54
2021/12/17 11:57:53;;;;;;;27.15;21.55;;;;;;;;;;10236104;28;20088;-55
2021/12/17 12:02:54;;;;;;;27.85;20.20;;;;;;;;;;10232891;28;20069;-50
2021/12/17 12:07:52;;;;;;;46.25;35.38;;;;;;;;;;10232867;28;20084;-51
2021/12/17 12:12:55;;;;;;;47.67;31.17;;;;;;;;;;10232859;28;20033;-51
2021/12/17 12:18:06;;;;;;;72.82;45.17;;;;;;;;;;10232501;28;20080;-54
2021/12/17 12:23:14;;;;;;;48.08;30.95;;;;;;;;;;10231712;28;20065;-53
2021/12/17 12:28:14;;;;;;;67.13;40.63;;;;;;;;;;10232467;28;20080;-53
2021/12/17 12:33:14;;;;;;;76.00;43.53;;;;;;;;;;10232541;28;20696;-54
2021/12/17 12:38:14;;;;;;;43.53;30.77;;;;;;;;;;10237611;28;20076;-51
2021/12/17 12:43:25;;;;;;;78.25;51.22;;;;;;;;;;10239219;28;20476;-52
2021/12/17 12:48:32;;;;;;;68.95;49.33;;;;;;;;;;10231848;28;20053;-54
2021/12/17 12:53:30;;;;;;;56.72;35.92;;;;;;;;;;10240618;28;20084;-54
2021/12/17 12:58:29;;;;;;;85.93;59.70;;;;;;;;;;10243719;28;20084;-51
2021/12/17 13:03:28;;;;;;;50.42;36.20;;;;;;;;;;10235308;28;20065;-51
2021/12/17 13:08:30;;;;;;;48.13;38.10;;;;;;;;;;10231531;28;20073;-50
2021/12/17 13:13:34;;;;;;;57.78;41.63;;;;;;;;;;10266216;28;20056;-51
2021/12/17 13:23:57;;;;;;;38.72;27.75;;;;;;;;;;10266330;28;20054;-52
2021/12/17 13:28:59;;;;;;;48.30;37.45;;;;;;;;;;10270258;28;20538;-51
2021/12/17 13:33:57;;;;;;;44.47;29.40;;;;;;;;;;10270101;28;20060;-51
2021/12/17 13:38:58;;;;;;;56.95;36.17;;;;;;;;;;10275468;28;20077;-51
2021/12/17 13:43:57;;;;;;;43.72;31.40;;;;;;;;;;10276995;28;20406;-55
2021/12/17 13:48:55;;;;;;;52.97;35.35;;;;;;;;;;10276678;28;20045;-55
2021/12/17 13:53:56;;;;;;;54.20;33.97;;;;;;;;;;10272484;28;20076;-54
2021/12/17 13:59:10;;;;;;;143.60;79.70;;;;;;;;;;10239806;28;20077;-50
2021/12/17 14:04:14;;;;;;;84.63;49.10;;;;;;;;;;10237082;28;20046;-53
2021/12/17 14:09:16;;;;;;;66.20;42.57;;;;;;;;;;10236967;28;20077;-53
2021/12/17 14:14:23;;;;;;;55.78;39.17;;;;;;;;;;10236846;28;20085;-54
2021/12/17 14:19:34;;;;;;;76.90;48.58;;;;;;;;;;10236125;28;20475;-53
2021/12/17 14:24:32;;;;;;;89.68;61.72;;;;;;;;;;10232720;28;20080;-54
2021/12/17 14:29:32;;;;;;;40.50;34.30;;;;;;;;;;10243377;28;20536;-51
2021/12/17 14:34:40;;;;;;;36.25;25.63;;;;;;;;;;10236301;28;20081;-52
2021/12/17 14:39:42;;;;;;;21.40;16.15;;;;;;;;;;10236355;28;20510;-54
2021/12/17 14:44:51;;;;;;;33.70;26.85;;;;;;;;;;10249294;28;20084;-54
2021/12/17 15:00:33;;;;;;;39.35;25.45;;;;;;;;;;10268144;28;20092;-55
2021/12/17 15:05:32;;;;;;;32.28;21.33;;;;;;;;;;10255055;28;20414;-53
2021/12/17 15:10:31;;;;;;;30.42;23.08;;;;;;;;;;10233961;28;20407;-54
2021/12/17 15:15:35;;;;;;;74.38;51.03;;;;;;;;;;10233760;28;20077;-54
2021/12/17 15:20:34;;;;;;;31.07;22.37;;;;;;;;;;10243485;28;20100;-53
2021/12/17 15:25:35;;;;;;;15.20;12.80;;;;;;;;;;10243897;28;20068;-51
2021/12/17 15:30:36;;;;;;;15.77;13.52;;;;;;;;;;10233068;28;20099;-53
2021/12/17 15:35:34;;;;;;;31.23;25.52;;;;;;;;;;10233342;28;20361;-54
2021/12/17 15:40:33;;;;;;;26.50;21.77;;;;;;;;;;10233066;28;20077;-53
2021/12/17 15:45:32;;;;;;;60.95;37.05;;;;;;;;;;10245593;28;20076;-55
2021/12/17 15:50:32;;;;;;;72.95;44.45;;;;;;;;;;10242318;28;20075;-55
2021/12/17 15:55:33;;;;;;;120.75;71.65;;;;;;;;;;10242327;28;20076;-54
2021/12/17 16:00:33;;;;;;;93.88;55.08;;;;;;;;;;10231214;28;20077;-54
2021/12/17 16:05:34;;;;;;;113.60;65.68;;;;;;;;;;10232522;28;20073;-56
2021/12/17 16:21:10;;;;;;;194.13;114.28;;;;;;;;;;10265050;28;20073;-55
2021/12/17 16:26:10;;;;;;;113.25;76.53;;;;;;;;;;10248319;28;20423;-50
2021/12/17 16:31:09;;;;;;;91.65;58.50;;;;;;;;;;10242748;28;20077;-53
2021/12/17 16:36:09;;;;;;;61.78;47.95;;;;;;;;;;10231877;28;20041;-51
2021/12/17 16:41:09;;;;;;;93.93;66.07;;;;;;;;;;10230797;28;20513;-53
2021/12/17 16:51:25;;;;;;;41.38;34.92;;;;;;;;;;10231062;28;20088;-54
2021/12/17 16:56:26;;;;;;;62.38;50.80;;;;;;;;;;10242029;28;20081;-55
2021/12/17 17:01:25;;;;;;;92.05;64.57;;;;;;;;;;10242843;28;20072;-53
2021/12/17 17:06:23;;;;;;;56.75;43.50;;;;;;;;;;10237415;28;20045;-54
2021/12/17 17:11:28;;;;;;;54.05;43.67;;;;;;;;;;10234762;28;20041;-54
2021/12/17 17:16:27;;;;;;;;;;;;;;;;;;10245295;28;20095;-55
2021/12/17 17:21:26;;;;;;;52.38;39.00;;;;;;;;;;10241812;28;19987;-51
2021/12/17 17:26:25;;;;;;;47.35;34.35;;;;;;;;;;10260013;28;20467;-52
2021/12/17 17:31:23;;;;;;;38.95;27.45;;;;;;;;;;10275266;28;20476;-51
2021/12/17 17:36:23;;;;;;;22.30;16.50;;;;;;;;;;10264892;28;20072;-54
2021/12/17 17:41:25;;;;;;;22.70;17.13;;;;;;;;;;10247670;28;20084;-53
2021/12/17 17:46:23;;;;;;;50.58;38.65;;;;;;;;;;10240729;28;20073;-52
2021/12/17 17:51:22;;;;;;;27.30;21.58;;;;;;;;;;10252478;28;20057;-54
2021/12/17 17:56:20;;;;;;;111.38;79.80;;;;;;;;;;10250245;28;20091;-54
2021/12/17 18:01:20;;;;;;;96.22;62.53;;;;;;;;;;10252230;28;20067;-54
2021/12/17 18:06:18;;;;;;;145.88;83.60;;;;;;;;;;10241611;28;20466;-52
2021/12/17 18:11:16;;;;;;;109.32;59.42;;;;;;;;;;10253263;28;20088;-52
2021/12/17 18:16:15;;;;;;;207.93;110.32;;;;;;;;;;10254164;28;20136;-53
2021/12/17 18:21:14;;;;;;;117.95;61.88;;;;;;;;;;10241787;28;20435;-54
2021/12/17 18:26:13;;;;;;;100.45;58.13;;;;;;;;;;10246228;28;20144;-53
2021/12/17 18:31:11;;;;;;;44.63;32.22;;;;;;;;;;10241639;28;20314;-50
2021/12/17 18:36:11;;;;;;;69.68;50.88;;;;;;;;;;10242313;28;20068;-51
2021/12/17 18:41:23;;;;;;;33.58;23.63;;;;;;;;;;10248713;28;20485;-55
2021/12/17 18:46:22;;;;;;;24.67;19.92;;;;;;;;;;10240652;28;20392;-51
2021/12/17 18:51:20;;;;;;;85.63;60.00;;;;;;;;;;10239153;28;20506;-54
2021/12/17 18:56:25;;;;;;;57.38;39.45;;;;;;;;;;10251224;28;20431;-53
2021/12/17 19:01:24;;;;;;;26.48;20.40;;;;;;;;;;10250280;28;20533;-53
2021/12/17 19:06:22;;;;;;;22.20;18.08;;;;;;;;;;10265691;28;20468;-53
2021/12/17 19:11:22;;;;;;;31.00;23.88;;;;;;;;;;10273297;28;20072;-54
2021/12/17 19:16:23;;;;;;;27.85;21.40;;;;;;;;;;10273103;28;20052;-52
2021/12/17 19:21:34;;;;;;;23.88;18.42;;;;;;;;;;10246354;28;20076;-48
2021/12/17 19:26:33;;;;;;;19.52;15.07;;;;;;;;;;10247095;28;20072;-53
2021/12/17 19:31:32;;;;;;;19.55;12.93;;;;;;;;;;10249006;28;20068;-55
2021/12/17 19:36:35;;;;;;;16.88;13.13;;;;;;;;;;10260662;28;20049;-55
2021/12/17 19:41:35;;;;;;;13.90;11.43;;;;;;;;;;10244653;28;20506;-54
2021/12/17 19:46:41;;;;;;;12.30;10.35;;;;;;;;;;10257121;28;20430;-54
2021/12/17 19:51:40;;;;;;;14.15;11.20;;;;;;;;;;10254623;28;20053;-54
2021/12/17 19:56:40;;;;;;;13.50;11.32;;;;;;;;;;10232248;28;20084;-52
2021/12/17 20:01:58;;;;;;;11.02;9.93;;;;;;;;;;10238449;28;20076;-51
2021/12/17 20:07:02;;;;;;;12.35;10.40;;;;;;;;;;10245206;28;20069;-53
2021/12/17 20:12:02;;;;;;;13.10;11.60;;;;;;;;;;10235030;28;20068;-53
2021/12/17 20:17:00;;;;;;;21.00;15.55;;;;;;;;;;10246371;28;20091;-55
2021/12/17 20:21:58;;;;;;;24.10;14.60;;;;;;;;;;10254656;28;20698;-52
2021/12/17 20:26:57;;;;;;;19.00;14.82;;;;;;;;;;10242358;28;20084;-53
2021/12/17 20:31:56;;;;;;;17.17;14.32;;;;;;;;;;10242743;28;20076;-51
2021/12/17 20:36:55;;;;;;;16.33;13.13;;;;;;;;;;10242167;28;20084;-55
2021/12/17 20:41:55;;;;;;;16.58;13.07;;;;;;;;;;10244886;28;20072;-55
2021/12/17 20:46:53;;;;;;;16.08;13.02;;;;;;;;;;10260007;28;20064;-54
2021/12/17 20:51:53;;;;;;;20.98;15.50;;;;;;;;;;10259862;28;20084;-54
2021/12/17 20:56:51;;;;;;;14.05;11.88;;;;;;;;;;10256647;28;20191;-54
2021/12/17 21:01:49;;;;;;;16.17;12.75;;;;;;;;;;10251668;28;20065;-54
2021/12/17 21:06:48;;;;;;;16.23;13.30;;;;;;;;;;10248651;28;20530;-54
2021/12/17 21:11:51;;;;;;;16.42;13.10;;;;;;;;;;10267441;28;20075;-55
2021/12/17 21:16:51;;;;;;;24.33;15.90;;;;;;;;;;10238070;28;20610;-54
2021/12/17 21:21:49;;;;;;;20.70;14.68;;;;;;;;;;10270101;28;20091;-56
2021/12/17 21:26:50;;;;;;;13.32;10.55;;;;;;;;;;10250145;28;20115;-54
2021/12/17 21:31:49;;;;;;;18.73;14.55;;;;;;;;;;10260550;28;20080;-52
2021/12/17 21:36:48;;;;;;;37.17;27.48;;;;;;;;;;10260279;28;20068;-55
2021/12/17 21:41:46;;;;;;;32.60;24.35;;;;;;;;;;10248461;28;20632;-55
2021/12/17 21:46:46;;;;;;;29.65;22.75;;;;;;;;;;10252311;28;20129;-54
2021/12/17 21:51:44;;;;;;;24.13;17.42;;;;;;;;;;10255263;28;20073;-56
2021/12/17 21:56:42;;;;;;;18.13;16.20;;;;;;;;;;10250162;28;20106;-52
2021/12/17 22:01:40;;;;;;;18.60;15.45;;;;;;;;;;10237337;28;20084;-55
2021/12/17 22:06:41;;;;;;;15.65;12.70;;;;;;;;;;10236971;28;20459;-53
2021/12/17 22:11:40;;;;;;;16.50;13.35;;;;;;;;;;10245827;28;20073;-56
2021/12/17 22:16:38;;;;;;;84.70;51.38;;;;;;;;;;10249524;28;20073;-54
2021/12/17 22:21:42;;;;;;;30.75;23.05;;;;;;;;;;10239726;28;20069;-54
2021/12/17 22:26:42;;;;;;;34.75;24.75;;;;;;;;;;10236566;28;20068;-51
2021/12/17 22:31:41;;;;;;;42.00;28.92;;;;;;;;;;10236199;28;20081;-55
2021/12/17 22:36:39;;;;;;;45.45;29.55;;;;;;;;;;10246420;28;20073;-55
2021/12/17 22:41:43;;;;;;;12.48;9.60;;;;;;;;;;10235362;28;20092;-51
2021/12/17 22:46:44;;;;;;;66.47;42.50;;;;;;;;;;10234729;28;20066;-55
2021/12/17 22:51:43;;;;;;;148.77;90.22;;;;;;;;;;10245495;28;20049;-50
2021/12/17 22:56:41;;;;;;;40.47;33.13;;;;;;;;;;10244647;28;20541;-52
2021/12/17 23:01:40;;;;;;;33.78;24.92;;;;;;;;;;10234242;28;20088;-55
2021/12/17 23:06:43;;;;;;;25.15;19.33;;;;;;;;;;10237627;28;20089;-53
2021/12/17 23:11:42;;;;;;;20.63;17.45;;;;;;;;;;10244225;28;20061;-52
2021/12/17 23:16:42;;;;;;;18.70;15.13;;;;;;;;;;10243795;28;20077;-53
2021/12/17 23:21:41;;;;;;;15.00;12.00;;;;;;;;;;10244167;28;20072;-55
2021/12/17 23:26:40;;;;;;;21.20;17.70;;;;;;;;;;10244229;28;20561;-53
2021/12/17 23:31:39;;;;;;;61.80;35.53;;;;;;;;;;10233527;28;20076;-55
2021/12/17 23:36:38;;;;;;;25.08;20.83;;;;;;;;;;10233304;28;20064;-53
2021/12/17 23:41:37;;;;;;;15.52;13.63;;;;;;;;;;10243131;28;20084;-54
2021/12/17 23:46:36;;;;;;;22.17;19.83;;;;;;;;;;10233450;28;20073;-54
2021/12/17 23:51:35;;;;;;;39.67;30.58;;;;;;;;;;10233146;28;20167;-55
2021/12/17 23:56:34;;;;;;;49.83;37.50;;;;;;;;;;10242518;28;20073;-55
